Time;durP1;ratioP1;P1;durP2;ratioP2;P2;SDS_P1;SDS_P2;PMS_P1;PMS_P2;Temp;Humidity;BMP_temperature;BMP_pressure;BME280_temperature;BME280_humidity;BME280_pressure;Samples;Min_cycle;Max_cycle;Signal;HPM_P1;HPM_P2
2021/11/18 00:00:50;;;;;;;26.85;16.35;;;;;;;6.75;100.00;101517.22;5038150;28;20044;-52
2021/11/18 00:03:19;;;;;;;27.45;15.73;;;;;;;6.69;100.00;101519.03;5039282;28;20049;-54
2021/11/18 00:05:46;;;;;;;29.40;17.17;;;;;;;6.66;100.00;101513.81;5030935;28;20040;-54
2021/11/18 00:08:13;;;;;;;27.52;17.40;;;;;;;6.62;100.00;101506.84;5028738;28;20522;-52
2021/11/18 00:10:44;;;;;;;28.63;17.13;;;;;;;6.57;100.00;101505.19;5035889;28;20044;-54
2021/11/18 00:13:15;;;;;;;29.65;17.02;;;;;;;6.50;100.00;101500.88;5028160;28;20463;-53
2021/11/18 00:15:42;;;;;;;31.67;17.75;;;;;;;6.55;100.00;101512.22;5035450;28;20045;-53
2021/11/18 00:29:30;;;;;;;31.15;17.10;;;;;;;6.64;100.00;101543.66;5035065;28;20048;-53
2021/11/18 00:35:45;;;;;;;31.77;17.42;;;;;;;6.57;100.00;101536.75;5027736;28;20043;-52
2021/11/18 00:38:12;;;;;;;28.15;16.67;;;;;;;6.56;100.00;101530.63;5034077;28;20049;-54
2021/11/18 00:40:42;;;;;;;33.00;18.42;;;;;;;6.60;100.00;101548.13;5029363;28;20331;-53
2021/11/18 00:43:12;;;;;;;28.80;17.48;;;;;;;6.62;100.00;101555.97;5031137;28;20060;-53
2021/11/18 00:45:40;;;;;;;32.77;17.60;;;;;;;6.55;100.00;101563.09;5026846;28;20052;-53
2021/11/18 00:48:08;;;;;;;31.63;17.88;;;;;;;6.50;100.00;101569.28;5027755;28;20486;-53
2021/11/18 00:50:38;;;;;;;31.30;17.55;;;;;;;6.47;100.00;101558.78;5033866;28;20400;-54
2021/11/18 00:53:25;;;;;;;32.13;17.75;;;;;;;6.49;100.00;101557.88;5028283;28;20045;-54
2021/11/18 00:55:52;;;;;;;30.90;18.17;;;;;;;6.51;100.00;101563.13;5031203;28;20418;-53
2021/11/18 00:58:19;;;;;;;32.63;17.58;;;;;;;6.55;100.00;101565.72;5028929;28;20044;-53
2021/11/18 01:00:49;;;;;;;31.17;17.38;;;;;;;6.62;100.00;101577.91;5031485;28;20037;-54
2021/11/18 01:03:21;;;;;;;30.13;17.83;;;;;;;6.60;100.00;101566.56;5025430;28;20063;-52
2021/11/18 01:05:50;;;;;;;30.00;17.38;;;;;;;6.60;100.00;101549.88;5023902;28;20562;-54
2021/11/18 01:08:17;;;;;;;32.20;18.10;;;;;;;6.60;100.00;101553.38;5029361;28;20155;-52
2021/11/18 01:11:12;;;;;;;30.95;17.45;;;;;;;6.59;100.00;101554.28;5033722;28;20391;-53
2021/11/18 01:13:40;;;;;;;30.67;17.05;;;;;;;6.55;100.00;101568.34;5027379;28;20055;-54
2021/11/18 01:16:12;;;;;;;28.40;16.80;;;;;;;6.54;100.00;101571.88;5027190;28;21810;-52
2021/11/18 01:18:39;;;;;;;28.05;16.83;;;;;;;6.48;100.00;101566.66;5035019;28;20116;-53
2021/11/18 01:21:07;;;;;;;27.55;16.63;;;;;;;6.48;100.00;101564.03;5029139;28;20047;-55
2021/11/18 01:23:37;;;;;;;29.48;17.30;;;;;;;6.46;100.00;101571.06;5030924;28;20061;-52
2021/11/18 01:26:06;;;;;;;33.75;17.73;;;;;;;6.43;100.00;101571.13;5032009;28;20049;-52
2021/11/18 01:28:34;;;;;;;30.23;17.65;;;;;;;6.44;100.00;101564.13;5026013;28;20045;-53
2021/11/18 01:31:02;;;;;;;29.48;16.90;;;;;;;6.40;100.00;101558.00;5030804;28;20041;-51
2021/11/18 01:33:28;;;;;;;31.23;17.45;;;;;;;6.35;100.00;101565.06;5026379;28;20056;-52
2021/11/18 01:35:56;;;;;;;27.42;16.17;;;;;;;6.33;100.00;101574.72;5028398;28;20049;-54
2021/11/18 01:38:24;;;;;;;30.40;16.58;;;;;;;6.32;100.00;101578.25;5027640;28;20068;-52
2021/11/18 01:40:53;;;;;;;28.67;16.27;;;;;;;6.33;100.00;101586.13;5035489;28;20045;-54
2021/11/18 01:43:23;;;;;;;33.03;16.98;;;;;;;6.32;100.00;101580.88;5027576;28;21006;-53
2021/11/18 01:45:49;;;;;;;35.03;17.33;;;;;;;6.29;100.00;101573.03;5028263;28;20041;-54
2021/11/18 01:48:16;;;;;;;33.28;17.25;;;;;;;6.27;100.00;101577.44;5035132;28;20052;-50
2021/11/18 01:50:47;;;;;;;29.42;16.42;;;;;;;6.30;100.00;101587.91;5029286;28;20508;-53
2021/11/18 01:53:23;;;;;;;31.50;16.52;;;;;;;6.33;100.00;101586.13;5032545;28;20053;-54
2021/11/18 01:55:51;;;;;;;30.40;17.30;;;;;;;6.29;100.00;101583.56;5030940;28;20037;-52
2021/11/18 01:58:18;;;;;;;29.33;17.10;;;;;;;6.27;100.00;101590.59;5032181;28;20071;-53
2021/11/18 02:00:51;;;;;;;28.10;16.23;;;;;;;6.24;100.00;101594.13;5028204;28;20406;-52
2021/11/18 02:03:19;;;;;;;30.23;17.92;;;;;;;6.25;100.00;101593.25;5028207;28;20048;-54
2021/11/18 02:05:56;;;;;;;33.78;17.45;;;;;;;6.24;100.00;101591.50;5033870;28;20072;-51
2021/11/18 02:08:23;;;;;;;28.38;17.08;;;;;;;6.18;100.00;101588.91;5031655;28;20044;-54
2021/11/18 02:10:54;;;;;;;34.28;18.00;;;;;;;6.17;100.00;101591.56;5032975;28;20566;-53
2021/11/18 02:13:23;;;;;;;30.73;16.95;;;;;;;6.14;100.00;101595.09;5036165;28;20053;-53
2021/11/18 02:15:53;;;;;;;29.23;16.67;;;;;;;6.13;100.00;101593.38;5032848;28;20633;-53
2021/11/18 02:18:30;;;;;;;28.08;17.02;;;;;;;6.13;100.00;101595.13;5034580;28;20069;-57
2021/11/18 02:21:02;;;;;;;27.27;16.90;;;;;;;6.09;100.00;101591.66;5029242;28;20063;-53
2021/11/18 02:23:33;;;;;;;29.40;16.95;;;;;;;6.07;100.00;101598.69;5026086;28;20045;-53
2021/11/18 02:26:00;;;;;;;30.33;16.08;;;;;;;6.04;100.00;101610.97;5031638;28;20052;-51
2021/11/18 02:28:31;;;;;;;30.98;17.50;;;;;;;6.08;100.00;101599.56;5032010;28;20053;-54
2021/11/18 02:30:59;;;;;;;30.65;17.65;;;;;;;6.03;100.00;101601.34;5033268;28;20044;-52
2021/11/18 02:33:26;;;;;;;26.92;16.05;;;;;;;6.05;100.00;101603.06;5032947;28;20045;-52
2021/11/18 02:35:56;;;;;;;27.83;16.40;;;;;;;6.03;100.00;101611.84;5025640;28;20053;-53
2021/11/18 02:38:22;;;;;;;30.95;16.70;;;;;;;6.00;100.00;101615.38;5033315;28;20068;-53
2021/11/18 02:40:49;;;;;;;31.02;16.25;;;;;;;5.99;100.00;101621.53;5034729;28;20041;-54
2021/11/18 02:43:17;;;;;;;29.33;16.45;;;;;;;6.07;100.00;101626.72;5029540;28;20738;-52
2021/11/18 02:45:47;;;;;;;34.22;17.63;;;;;;;6.09;100.00;101622.34;5030907;28;20047;-53
2021/11/18 02:48:15;;;;;;;31.27;17.77;;;;;;;6.08;100.00;101620.59;5032658;28;20053;-54
2021/11/18 02:50:48;;;;;;;32.85;17.80;;;;;;;6.03;100.00;101615.34;5030197;28;20046;-52
2021/11/18 02:53:15;;;;;;;28.38;16.83;;;;;;;6.01;100.00;101616.25;5036721;28;20073;-53
2021/11/18 02:55:45;;;;;;;33.00;17.75;;;;;;;5.93;100.00;101611.94;5025445;28;20491;-51
2021/11/18 02:58:12;;;;;;;31.30;17.02;;;;;;;5.95;100.00;101619.84;5035066;28;20045;-54
2021/11/18 03:01:06;;;;;;;34.53;18.17;;;;;;;5.93;100.00;101626.84;5036950;28;20053;-53
2021/11/18 03:03:33;;;;;;;27.85;16.38;;;;;;;5.82;100.00;101605.00;5032412;28;20033;-53
2021/11/18 03:06:00;;;;;;;30.27;16.58;;;;;;;5.90;100.00;101627.75;5026729;28;20049;-52
2021/11/18 03:08:27;;;;;;;32.28;17.08;;;;;;;5.92;100.00;101636.50;5036687;28;20045;-53
2021/11/18 03:10:55;;;;;;;32.78;17.15;;;;;;;5.91;100.00;101628.63;5034915;28;20057;-51
2021/11/18 03:13:23;;;;;;;31.58;16.73;;;;;;;5.89;100.00;101617.25;5031641;28;20049;-52
2021/11/18 03:15:50;;;;;;;35.30;17.83;;;;;;;5.91;100.00;101620.72;5031817;28;20049;-52
2021/11/18 03:18:17;;;;;;;34.88;17.83;;;;;;;5.88;100.00;101626.88;5035633;28;20049;-52
2021/11/18 03:20:43;;;;;;;31.63;17.73;;;;;;;5.87;100.00;101638.25;5029012;28;20494;-58
2021/11/18 03:23:11;;;;;;;36.45;17.73;;;;;;;5.90;100.00;101632.13;5031285;28;20112;-54
2021/11/18 03:25:39;;;;;;;37.33;18.48;;;;;;;5.88;100.00;101634.75;5033911;28;20038;-51
2021/11/18 03:28:08;;;;;;;33.70;17.40;;;;;;;5.86;100.00;101633.88;5033834;28;20899;-52
2021/11/18 03:30:39;;;;;;;35.35;18.67;;;;;;;5.87;100.00;101627.72;5025594;28;20043;-54
2021/11/18 03:33:10;;;;;;;34.95;17.75;;;;;;;5.79;100.00;101613.78;5030690;28;20052;-54
2021/11/18 03:35:37;;;;;;;31.35;17.52;;;;;;;5.90;100.00;101633.00;5030376;28;20423;-53
2021/11/18 03:38:05;;;;;;;34.40;18.15;;;;;;;5.78;100.00;101619.06;5038552;28;20151;-50
2021/11/18 03:40:31;;;;;;;30.25;17.17;;;;;;;5.87;100.00;101646.13;5031133;28;20055;-54
2021/11/18 03:42:59;;;;;;;33.95;17.90;;;;;;;5.86;100.00;101636.50;5027802;28;20041;-53
2021/11/18 03:45:29;;;;;;;37.20;18.70;;;;;;;5.92;100.00;101641.75;5028320;28;20049;-53
2021/11/18 03:47:56;;;;;;;39.20;20.03;;;;;;;5.94;100.00;101637.34;5038718;28;20045;-54
2021/11/18 03:50:22;;;;;;;38.38;19.70;;;;;;;5.97;100.00;101649.63;5033838;28;20496;-52
2021/11/18 03:52:49;;;;;;;31.77;17.25;;;;;;;5.97;100.00;101649.63;5030670;28;20048;-54
2021/11/18 03:55:17;;;;;;;39.58;19.17;;;;;;;5.91;100.00;101647.91;5028889;28;20050;-52
2021/11/18 03:57:44;;;;;;;33.75;18.15;;;;;;;5.93;100.00;101659.28;5029890;28;20483;-55
2021/11/18 04:00:16;;;;;;;37.17;18.67;;;;;;;5.92;100.00;101657.53;5034169;28;20073;-53
2021/11/18 04:02:44;;;;;;;39.13;18.90;;;;;;;5.87;100.00;101661.91;5026857;28;20045;-54
2021/11/18 04:05:11;;;;;;;37.85;18.35;;;;;;;5.88;100.00;101666.31;5027142;28;20053;-53
2021/11/18 04:07:40;;;;;;;37.40;18.02;;;;;;;5.90;100.00;101666.31;5037520;28;20089;-54
2021/11/18 04:10:10;;;;;;;39.90;18.27;;;;;;;5.88;100.00;101676.81;5032342;28;20049;-53
2021/11/18 04:12:39;;;;;;;36.30;18.33;;;;;;;5.87;100.00;101677.69;5035154;28;20045;-52
2021/11/18 04:15:07;;;;;;;34.83;17.88;;;;;;;5.85;100.00;101679.44;5028143;28;20049;-52
2021/11/18 04:17:34;;;;;;;35.92;18.60;;;;;;;5.82;100.00;101671.59;5036687;28;20048;-53
2021/11/18 04:20:03;;;;;;;36.25;18.42;;;;;;;5.79;100.00;101671.63;5036222;28;20049;-53
2021/11/18 04:22:30;;;;;;;39.85;19.52;;;;;;;5.75;100.00;101669.88;5031063;28;20037;-53
2021/11/18 04:24:56;;;;;;;38.35;18.92;;;;;;;5.76;100.00;101670.75;5027106;28;20051;-54
2021/11/18 04:27:23;;;;;;;41.42;20.42;;;;;;;5.76;100.00;101666.38;5036377;28;20051;-54
2021/11/18 04:29:49;;;;;;;40.72;19.58;;;;;;;5.74;100.00;101673.41;5032221;28;20049;-53
2021/11/18 04:32:21;;;;;;;40.17;20.52;;;;;;;5.75;100.00;101674.28;5029926;28;20060;-53
2021/11/18 04:34:48;;;;;;;39.55;20.05;;;;;;;5.76;100.00;101676.03;5031541;28;20577;-54
2021/11/18 04:37:15;;;;;;;39.38;19.98;;;;;;;5.72;100.00;101677.78;5029548;28;20046;-53
2021/11/18 04:39:42;;;;;;;39.08;20.38;;;;;;;5.73;100.00;101679.53;5034833;28;20041;-53
2021/11/18 04:42:11;;;;;;;40.20;18.90;;;;;;;5.75;100.00;101685.66;5040361;28;20366;-55
2021/11/18 04:44:38;;;;;;;39.90;18.67;;;;;;;5.74;100.00;101677.78;5023021;28;20041;-53
2021/11/18 04:47:09;;;;;;;36.40;19.48;;;;;;;5.81;100.00;101683.00;5027260;28;20046;-53
2021/11/18 04:49:37;;;;;;;38.53;19.80;;;;;;;5.81;100.00;101684.75;5041043;28;20037;-52
2021/11/18 04:52:04;;;;;;;37.60;19.65;;;;;;;5.80;100.00;101681.25;5029565;28;20611;-52
2021/11/18 04:54:31;;;;;;;41.63;19.67;;;;;;;5.78;100.00;101690.03;5033061;28;20042;-54
2021/11/18 04:56:58;;;;;;;37.88;19.33;;;;;;;5.76;100.00;101681.28;5027725;28;20045;-54
2021/11/18 04:59:25;;;;;;;37.20;19.70;;;;;;;5.79;100.00;101690.03;5030410;28;20045;-53
2021/11/18 05:01:52;;;;;;;38.35;19.48;;;;;;;5.86;100.00;101694.34;5036791;28;20056;-52
2021/11/18 05:04:20;;;;;;;41.83;19.67;;;;;;;5.85;100.00;101686.44;5031647;28;20524;-54
2021/11/18 05:06:46;;;;;;;38.15;19.58;;;;;;;5.90;100.00;101685.59;5030363;28;20056;-52
2021/11/18 05:09:14;;;;;;;38.65;20.20;;;;;;;5.90;100.00;101685.59;5030791;28;20050;-53
2021/11/18 05:11:42;;;;;;;41.88;19.65;;;;;;;5.89;100.00;101694.34;5029843;28;20073;-54
2021/11/18 05:14:09;;;;;;;38.03;19.90;;;;;;;5.84;100.00;101698.72;5033681;28;20049;-52
2021/11/18 05:16:36;;;;;;;43.60;21.42;;;;;;;5.81;100.00;101696.16;5028099;28;20676;-52
2021/11/18 05:19:04;;;;;;;40.42;20.52;;;;;;;5.79;100.00;101703.16;5033237;28;20045;-53
2021/11/18 05:21:31;;;;;;;43.30;21.45;;;;;;;5.77;100.00;101699.66;5027776;28;20041;-53
2021/11/18 05:24:02;;;;;;;42.42;20.90;;;;;;;5.72;100.00;101688.28;5027915;28;20465;-52
2021/11/18 05:26:30;;;;;;;40.10;20.35;;;;;;;5.82;100.00;101707.53;5027433;28;20037;-54
2021/11/18 05:28:56;;;;;;;42.47;20.60;;;;;;;5.80;100.00;101709.28;5029259;28;20049;-53
2021/11/18 05:31:27;;;;;;;42.60;20.83;;;;;;;5.83;100.00;101715.38;5030665;28;20062;-55
2021/11/18 05:33:54;;;;;;;41.80;20.58;;;;;;;5.84;100.00;101709.25;5028578;28;20049;-52
2021/11/18 05:36:21;;;;;;;38.55;20.20;;;;;;;5.85;100.00;101712.75;5022577;28;20053;-55
2021/11/18 05:38:48;;;;;;;35.63;18.65;;;;;;;5.79;100.00;101702.28;5034911;28;20045;-53
2021/11/18 05:41:15;;;;;;;39.85;20.95;;;;;;;5.79;100.00;101707.53;5028454;28;20141;-55
2021/11/18 05:43:42;;;;;;;40.55;20.33;;;;;;;5.77;100.00;101699.66;5038603;28;20049;-59
2021/11/18 05:46:11;;;;;;;41.20;20.23;;;;;;;5.74;100.00;101710.19;5028808;28;20558;-54
2021/11/18 05:48:38;;;;;;;40.88;21.23;;;;;;;5.67;100.00;101690.06;5030569;28;20046;-54
2021/11/18 05:51:07;;;;;;;50.22;22.50;;;;;;;5.76;100.00;101705.81;5036042;28;20124;-55
2021/11/18 05:53:38;;;;;;;45.08;21.92;;;;;;;5.76;100.00;101705.81;5034619;28;20042;-53
2021/11/18 05:56:10;;;;;;;39.13;20.63;;;;;;;5.80;100.00;101707.53;5028420;28;20064;-54
2021/11/18 05:58:38;;;;;;;40.80;20.23;;;;;;;5.82;100.00;101702.28;5037289;28;20048;-53
2021/11/18 06:01:05;;;;;;;38.72;20.48;;;;;;;5.82;100.00;101702.28;5027631;28;20053;-52
2021/11/18 06:03:33;;;;;;;41.00;20.70;;;;;;;5.80;100.00;101698.78;5034294;28;20052;-53
2021/11/18 06:06:00;;;;;;;40.13;20.67;;;;;;;5.75;100.00;101701.44;5028109;28;20653;-54
2021/11/18 06:08:27;;;;;;;38.80;19.42;;;;;;;5.73;100.00;101699.69;5029265;28;20042;-54
2021/11/18 06:10:53;;;;;;;44.20;21.38;;;;;;;5.74;100.00;101698.81;5029217;28;20054;-54
2021/11/18 06:13:20;;;;;;;39.75;20.88;;;;;;;5.76;100.00;101700.53;5030873;28;20049;-54
2021/11/18 06:15:47;;;;;;;43.05;20.55;;;;;;;5.76;100.00;101707.56;5021046;28;20049;-52
2021/11/18 06:18:14;;;;;;;44.95;21.33;;;;;;;5.74;100.00;101715.44;5035547;28;20037;-55
2021/11/18 06:20:41;;;;;;;43.45;21.35;;;;;;;5.75;100.00;101717.19;5026229;28;20053;-53
2021/11/18 06:23:11;;;;;;;42.33;21.85;;;;;;;5.69;100.00;101711.09;5027409;28;20442;-54
2021/11/18 06:25:38;;;;;;;42.55;22.38;;;;;;;5.69;100.00;101724.22;5027597;28;20049;-54
2021/11/18 06:28:06;;;;;;;44.70;22.98;;;;;;;5.69;100.00;101735.63;5036250;28;20044;-54
2021/11/18 06:30:46;;;;;;;46.60;22.45;;;;;;;5.76;100.00;101753.13;5030154;28;20049;-53
2021/11/18 06:33:13;;;;;;;44.63;22.27;;;;;;;5.85;100.00;101760.94;5033338;28;20037;-53
2021/11/18 06:35:41;;;;;;;45.53;22.25;;;;;;;5.86;100.00;101757.41;5026570;28;20051;-55
2021/11/18 06:38:27;;;;;;;41.40;22.05;;;;;;;5.88;100.00;101762.69;5033345;28;20085;-52
2021/11/18 06:40:54;;;;;;;41.08;21.63;;;;;;;5.91;100.00;101770.59;5037132;28;20383;-53
2021/11/18 06:43:22;;;;;;;41.17;22.70;;;;;;;5.96;100.00;101780.19;5025946;28;20380;-54
2021/11/18 06:45:49;;;;;;;42.80;21.65;;;;;;;5.85;100.00;101757.44;5022024;28;20136;-52
2021/11/18 06:48:22;;;;;;;44.88;22.60;;;;;;;5.95;100.00;101783.72;5037934;28;20510;-52
2021/11/18 06:50:50;;;;;;;41.78;22.38;;;;;;;5.96;100.00;101784.59;5033210;28;20041;-52
2021/11/18 06:53:17;;;;;;;45.28;22.60;;;;;;;5.95;100.00;101777.56;5039513;28;20062;-53
2021/11/18 06:55:44;;;;;;;45.10;23.55;;;;;;;5.96;100.00;101776.69;5031728;28;20522;-53
2021/11/18 06:58:11;;;;;;;42.55;22.85;;;;;;;5.94;100.00;101773.19;5030233;28;20116;-54
2021/11/18 07:00:37;;;;;;;46.38;23.40;;;;;;;5.93;100.00;101774.94;5032652;28;20045;-53
2021/11/18 07:03:07;;;;;;;50.72;23.88;;;;;;;5.91;100.00;101760.94;5030178;28;20053;-53
2021/11/18 07:05:33;;;;;;;45.55;22.63;;;;;;;5.96;100.00;101747.78;5031788;28;20060;-55
2021/11/18 07:08:01;;;;;;;43.33;22.33;;;;;;;5.87;100.00;101738.13;5033751;28;20057;-53
2021/11/18 07:10:27;;;;;;;41.88;22.67;;;;;;;5.99;100.00;101740.72;5035971;28;20045;-55
2021/11/18 07:12:54;;;;;;;46.55;23.35;;;;;;;6.03;100.00;101748.59;5038386;28;20046;-53
2021/11/18 07:15:22;;;;;;;43.42;22.88;;;;;;;6.03;100.00;101754.72;5024068;28;20069;-54
2021/11/18 07:17:52;;;;;;;45.25;21.75;;;;;;;6.07;100.00;101764.34;5030172;28;20095;-52
2021/11/18 07:20:19;;;;;;;44.83;21.88;;;;;;;6.13;100.00;101773.97;5037872;28;20053;-53
2021/11/18 07:22:46;;;;;;;43.63;22.90;;;;;;;5.98;100.00;101772.31;5032742;28;20041;-53
2021/11/18 07:25:18;;;;;;;45.13;21.55;;;;;;;6.06;100.00;101786.25;5029939;28;20045;-54
2021/11/18 07:27:45;;;;;;;45.80;22.23;;;;;;;6.09;100.00;101788.88;5032471;28;20056;-52
2021/11/18 07:30:11;;;;;;;46.53;22.63;;;;;;;6.09;100.00;101793.25;5032298;28;20060;-55
2021/11/18 07:32:39;;;;;;;51.47;22.73;;;;;;;6.13;100.00;101797.63;5034298;28;20529;-53
2021/11/18 07:35:06;;;;;;;44.83;22.70;;;;;;;6.16;100.00;101808.97;5025809;28;20045;-54
2021/11/18 07:37:33;;;;;;;43.42;21.95;;;;;;;6.17;100.00;101817.75;5033663;28;20040;-54
2021/11/18 07:39:59;;;;;;;43.85;21.95;;;;;;;6.13;100.00;101821.31;5037851;28;20044;-53
2021/11/18 07:42:27;;;;;;;45.50;22.58;;;;;;;6.11;100.00;101837.09;5033482;28;20919;-53
2021/11/18 07:44:53;;;;;;;45.53;23.13;;;;;;;6.14;100.00;101841.47;5034385;28;20045;-55
2021/11/18 07:47:20;;;;;;;45.25;22.63;;;;;;;6.18;100.00;101849.31;5029391;28;20049;-54
2021/11/18 07:49:46;;;;;;;43.72;22.65;;;;;;;6.18;100.00;101843.16;5030303;28;20049;-52
2021/11/18 07:52:13;;;;;;;40.33;21.50;;;;;;;6.13;100.00;101844.97;5028248;28;20529;-51
2021/11/18 07:54:40;;;;;;;45.65;22.50;;;;;;;6.12;100.00;101843.22;5030937;28;20045;-54
2021/11/18 07:57:06;;;;;;;38.47;20.58;;;;;;;6.09;100.00;101841.47;5012563;28;20059;-53
2021/11/18 07:59:33;;;;;;;46.40;22.13;;;;;;;6.09;100.00;101837.97;5036518;28;20586;-52
2021/11/18 08:01:59;;;;;;;45.05;22.70;;;;;;;6.14;100.00;101837.03;5035774;28;20040;-53
2021/11/18 08:04:27;;;;;;;48.58;24.08;;;;;;;6.17;100.00;101834.41;5027061;28;20090;-54
2021/11/18 08:06:55;;;;;;;49.72;24.25;;;;;;;6.16;100.00;101837.91;5025446;28;20056;-54
2021/11/18 08:09:26;;;;;;;48.47;22.88;;;;;;;6.18;100.00;101837.91;5035202;28;20057;-54
2021/11/18 08:11:58;;;;;;;50.22;23.98;;;;;;;6.16;100.00;101842.28;5027383;28;20050;-53
2021/11/18 08:14:26;;;;;;;49.03;23.42;;;;;;;6.14;100.00;101833.56;5028114;28;20152;-52
2021/11/18 08:16:54;;;;;;;51.85;23.83;;;;;;;6.15;100.00;101840.53;5026035;28;20095;-53
2021/11/18 08:19:23;;;;;;;46.00;23.92;;;;;;;6.21;100.00;101840.53;5033532;28;20307;-54
2021/11/18 08:21:51;;;;;;;47.53;22.67;;;;;;;6.22;100.00;101837.88;5028631;28;20048;-53
2021/11/18 08:24:20;;;;;;;44.33;23.80;;;;;;;6.25;100.00;101837.88;5034711;28;20051;-53
2021/11/18 08:26:48;;;;;;;46.17;23.40;;;;;;;6.26;100.00;101837.00;5029177;28;20040;-52
2021/11/18 08:29:17;;;;;;;45.90;23.95;;;;;;;6.29;100.00;101834.34;5032337;28;20051;-54
2021/11/18 08:31:45;;;;;;;49.30;23.20;;;;;;;6.36;100.00;101836.91;5031883;28;20041;-53
2021/11/18 08:34:13;;;;;;;47.05;23.63;;;;;;;6.36;100.00;101847.44;5032536;28;20533;-53
2021/11/18 08:36:41;;;;;;;48.55;22.75;;;;;;;6.35;100.00;101846.56;5026941;28;20037;-51
2021/11/18 08:39:09;;;;;;;46.58;23.27;;;;;;;6.31;100.00;101845.72;5032845;28;20056;-53
2021/11/18 08:41:36;;;;;;;46.53;23.35;;;;;;;6.28;100.00;101843.13;5035759;28;20371;-55
2021/11/18 08:44:03;;;;;;;45.05;22.90;;;;;;;6.32;100.00;101852.72;5038248;28;20044;-56
2021/11/18 08:46:30;;;;;;;42.45;21.63;;;;;;;6.30;100.00;101832.56;5024669;28;20168;-54
2021/11/18 08:49:01;;;;;;;42.28;21.98;;;;;;;6.52;100.00;101849.97;5032166;28;20053;-51
2021/11/18 08:51:30;;;;;;;41.08;21.20;;;;;;;6.61;100.00;101855.16;5030623;28;20128;-55
2021/11/18 08:53:58;;;;;;;38.97;21.13;;;;;;;6.73;100.00;101862.09;5030952;28;20740;-55
2021/11/18 08:56:25;;;;;;;35.88;20.42;;;;;;;6.76;100.00;101848.03;5033126;28;20072;-53
2021/11/18 08:58:56;;;;;;;37.90;20.63;;;;;;;6.74;99.32;101845.41;5034194;28;20049;-52
2021/11/18 09:01:35;;;;;;;39.05;21.10;;;;;;;6.90;99.46;101862.84;5031090;28;20049;-52
2021/11/18 09:04:07;;;;;;;40.13;21.57;;;;;;;7.04;98.21;101855.69;5038405;28;20087;-54
2021/11/18 09:06:33;;;;;;;35.17;19.75;;;;;;;7.02;96.42;101861.84;5028403;28;20136;-53
2021/11/18 09:09:01;;;;;;;35.03;19.23;;;;;;;7.07;96.12;101869.72;5028323;28;20056;-53
2021/11/18 09:11:29;;;;;;;43.25;21.20;;;;;;;7.08;96.13;101868.84;5017222;28;20041;-55
2021/11/18 09:13:56;;;;;;;39.58;21.40;;;;;;;7.07;96.23;101865.31;5023721;28;20444;-52
2021/11/18 09:16:25;;;;;;;39.95;21.60;;;;;;;7.13;96.03;101853.84;5022836;28;20057;-52
2021/11/18 09:18:51;;;;;;;40.00;21.38;;;;;;;7.24;95.88;101849.34;5020902;28;20049;-53
2021/11/18 09:21:21;;;;;;;39.65;21.67;;;;;;;7.27;94.64;101847.53;5032360;28;20048;-51
2021/11/18 09:23:54;;;;;;;37.90;21.02;;;;;;;7.38;94.86;101847.44;5027005;28;20049;-52
2021/11/18 09:26:23;;;;;;;41.30;21.90;;;;;;;7.41;93.95;101839.47;5022565;28;20048;-52
2021/11/18 09:28:50;;;;;;;36.08;22.05;;;;;;;7.54;94.00;101849.03;5034884;28;20048;-50
2021/11/18 09:31:17;;;;;;;40.20;22.02;;;;;;;7.60;92.20;101837.53;5027070;28;20063;-50
2021/11/18 09:33:46;;;;;;;37.42;20.60;;;;;;;7.51;92.19;101854.34;5027685;28;20074;-57
2021/11/18 09:36:12;;;;;;;36.15;20.75;;;;;;;7.55;93.40;101860.44;5015216;28;20405;-52
2021/11/18 09:38:44;;;;;;;38.78;20.63;;;;;;;7.63;92.60;101870.00;5028582;28;20056;-53
2021/11/18 09:41:26;;;;;;;33.55;19.83;;;;;;;7.59;92.90;101880.59;5014396;28;20055;-52
2021/11/18 09:44:13;;;;;;;35.22;19.88;;;;;;;7.58;93.27;101889.38;5023153;28;20513;-53
2021/11/18 09:47:06;;;;;;;35.95;19.40;;;;;;;7.66;92.68;101887.56;5003368;28;20514;-51
2021/11/18 09:49:44;;;;;;;34.33;18.50;;;;;;;7.83;91.23;101892.63;5023967;28;20049;-52
2021/11/18 09:52:10;;;;;;;33.00;19.05;;;;;;;7.85;91.10;101897.00;5022498;28;20048;-53
2021/11/18 09:55:05;;;;;;;30.17;17.17;;;;;;;7.88;90.50;101888.16;5022368;28;20049;-51
2021/11/18 09:58:06;;;;;;;33.92;18.52;;;;;;;7.89;89.68;101882.88;5023053;28;20071;-51
2021/11/18 10:00:55;;;;;;;28.70;17.65;;;;;;;7.79;89.10;101878.59;5021423;28;20041;-51
2021/11/18 10:03:57;;;;;;;30.92;17.02;;;;;;;7.69;89.76;101892.81;5033403;28;20044;-53
2021/11/18 10:06:37;;;;;;;33.65;18.15;;;;;;;7.63;89.87;101899.00;4995700;28;20442;-55
2021/11/18 10:09:15;;;;;;;32.47;18.08;;;;;;;7.60;90.75;101899.03;5028176;28;20049;-52
2021/11/18 10:12:09;;;;;;;31.00;18.58;;;;;;;7.64;90.62;101900.75;5029907;28;20091;-53
2021/11/18 10:15:07;;;;;;;34.33;19.17;;;;;;;7.74;89.71;101909.41;5022571;28;20467;-53
2021/11/18 10:17:41;;;;;;;33.22;18.58;;;;;;;7.84;89.70;101903.16;5023114;28;20051;-54
2021/11/18 10:20:25;;;;;;;31.45;18.38;;;;;;;7.96;89.54;101903.00;5021619;28;20056;-53
2021/11/18 10:23:05;;;;;;;33.08;18.50;;;;;;;8.16;87.88;101899.25;5025117;28;20041;-52
2021/11/18 10:25:36;;;;;;;31.33;17.90;;;;;;;8.33;87.12;101899.94;5033658;28;20043;-53
2021/11/18 10:28:18;;;;;;;30.38;17.33;;;;;;;8.37;86.10;101893.69;5024451;28;20811;-53
2021/11/18 10:31:09;;;;;;;30.60;17.23;;;;;;;8.30;86.70;101899.94;5030325;28;20438;-52
2021/11/18 10:33:45;;;;;;;30.33;18.48;;;;;;;8.22;86.71;101900.03;5033399;28;20041;-52
2021/11/18 10:36:20;;;;;;;32.13;18.15;;;;;;;8.26;86.24;101895.59;5022738;28;20149;-52
2021/11/18 10:39:08;;;;;;;31.42;18.10;;;;;;;8.18;86.25;101892.19;5019938;28;20041;-52
2021/11/18 10:41:36;;;;;;;29.65;17.17;;;;;;;8.08;86.66;101892.31;5035133;28;20053;-54
2021/11/18 10:44:12;;;;;;;29.98;17.73;;;;;;;8.12;87.59;101884.34;5025246;28;20069;-52
2021/11/18 10:46:48;;;;;;;31.42;17.85;;;;;;;8.19;87.28;101878.09;5023259;28;20045;-53
2021/11/18 10:49:40;;;;;;;31.77;17.55;;;;;;;8.24;86.81;101874.50;5027398;28;20056;-53
2021/11/18 10:52:20;;;;;;;28.45;16.83;;;;;;;8.34;85.99;101883.22;5022902;28;20045;-54
2021/11/18 10:54:57;;;;;;;29.52;16.83;;;;;;;8.39;86.32;101881.34;5027231;28;20041;-53
2021/11/18 10:57:24;;;;;;;33.70;17.58;;;;;;;8.47;85.84;101873.34;5025183;28;20142;-60
2021/11/18 10:59:54;;;;;;;28.20;16.40;;;;;;;8.43;84.79;101869.88;5032347;28;20045;-56
2021/11/18 11:02:23;;;;;;;29.13;16.30;;;;;;;8.50;85.50;101873.31;5025149;28;20051;-52
2021/11/18 11:04:55;;;;;;;33.90;17.23;;;;;;;8.44;84.00;101858.41;5024061;28;20045;-56
2021/11/18 11:07:34;;;;;;;31.63;16.73;;;;;;;8.65;83.45;101878.34;5020310;28;20057;-54
2021/11/18 11:10:03;;;;;;;27.85;16.80;;;;;;;8.73;83.88;101882.59;5028725;28;20049;-51
2021/11/18 11:12:34;;;;;;;27.83;16.42;;;;;;;8.90;82.03;101876.19;5007291;28;20037;-52
2021/11/18 11:15:54;;;;;;;30.92;16.35;;;;;;;8.89;81.97;101874.44;5021764;28;20499;-53
2021/11/18 11:18:35;;;;;;;33.35;15.75;;;;;;;8.89;81.39;101871.78;4954240;28;20347;-53
2021/11/18 11:21:17;;;;;;;26.08;15.80;;;;;;;8.85;82.23;101859.53;5024595;28;20049;-55
2021/11/18 11:24:04;;;;;;;28.67;16.45;;;;;;;8.88;81.17;101865.63;5030651;28;20048;-51
2021/11/18 11:26:58;;;;;;;30.20;16.70;;;;;;;8.88;81.29;101847.16;4964560;28;20513;-52
2021/11/18 11:29:32;;;;;;;28.52;15.52;;;;;;;8.88;81.62;101849.78;5029139;28;20048;-55
2021/11/18 11:32:37;;;;;;;29.10;15.50;;;;;;;8.83;80.77;101843.69;5035386;28;20068;-53
2021/11/18 11:35:42;;;;;;;28.58;15.95;;;;;;;8.65;81.22;101804.41;5026768;28;20046;-54
2021/11/18 11:38:25;;;;;;;31.20;16.27;;;;;;;8.86;80.25;101834.84;5023417;28;20049;-55
2021/11/18 11:41:05;;;;;;;32.33;15.63;;;;;;;8.86;80.50;101824.28;5033751;28;20127;-54
2021/11/18 11:43:35;;;;;;;29.02;16.23;;;;;;;8.81;80.41;101821.75;5032379;28;20101;-54